createdAt,value
2019-04-01T00:01:13.793Z,30.03
2019-04-01T00:03:49.893Z,33.43
2019-04-01T00:06:23.058Z,34.97
2019-04-01T00:08:55.817Z,39.10
2019-04-01T00:11:29.000Z,34.53
2019-04-01T00:14:02.344Z,39.60
2019-04-01T00:16:34.073Z,40.60
2019-04-01T00:19:06.084Z,41.77
2019-04-01T00:21:40.029Z,38.97
2019-04-01T00:24:14.174Z,47.30
2019-04-01T00:26:46.101Z,38.60
2019-04-01T00:29:18.050Z,42.63
2019-04-01T00:31:53.867Z,42.37
2019-04-01T00:34:28.655Z,42.88
2019-04-01T00:37:01.054Z,38.00
2019-04-01T00:39:34.581Z,39.20
2019-04-01T00:42:19.543Z,47.40
2019-04-01T00:44:52.212Z,40.83
2019-04-01T00:47:27.983Z,38.00
2019-04-01T00:50:04.159Z,43.28
2019-04-01T00:52:45.585Z,46.00
2019-04-01T00:55:20.873Z,49.73
2019-04-01T00:57:54.221Z,43.20
2019-04-01T01:00:28.349Z,45.27
2019-04-01T01:03:01.395Z,45.70
2019-04-01T01:05:35.241Z,40.60
2019-04-01T01:08:08.750Z,43.87
2019-04-01T01:10:45.751Z,49.20
2019-04-01T01:13:19.625Z,49.40
2019-04-01T01:15:52.916Z,43.43
2019-04-01T01:18:29.255Z,48.53
2019-04-01T01:21:02.220Z,43.17
2019-04-01T01:23:35.217Z,50.43
2019-04-01T01:26:11.072Z,52.40
2019-04-01T01:28:43.354Z,44.27
2019-04-01T01:31:22.924Z,49.07
2019-04-01T01:34:02.623Z,43.27
2019-04-01T01:36:35.594Z,47.80
2019-04-01T01:39:24.443Z,48.03
2019-04-01T01:42:07.044Z,53.07
2019-04-01T01:44:44.249Z,49.73
2019-04-01T01:47:26.229Z,48.00
2019-04-01T01:50:03.609Z,61.10
2019-04-01T01:52:48.434Z,48.47
2019-04-01T01:55:23.937Z,43.40
2019-04-01T01:57:55.271Z,50.97
2019-04-01T02:00:54.445Z,49.30
2019-04-01T02:03:27.682Z,57.60
2019-04-01T02:06:01.524Z,48.40
2019-04-01T02:08:34.378Z,45.53
2019-04-01T02:11:07.440Z,53.33
2019-04-01T02:13:40.443Z,52.83
2019-04-01T02:16:16.029Z,48.23
2019-04-01T02:18:48.495Z,51.00
2019-04-01T02:21:22.509Z,56.25
2019-04-01T02:23:55.463Z,50.40
2019-04-01T02:26:28.498Z,43.60
2019-04-01T02:29:01.495Z,44.00
2019-04-01T02:31:34.879Z,45.27
2019-04-01T02:34:09.263Z,38.60
2019-04-01T02:36:40.587Z,70.23
2019-04-01T02:39:13.807Z,51.20
2019-04-01T02:41:46.619Z,51.43
2019-04-01T02:44:19.928Z,48.90
2019-04-01T02:46:53.639Z,48.93
2019-04-01T02:49:25.668Z,44.77
2019-04-01T02:51:58.948Z,44.83
2019-04-01T02:54:33.578Z,47.70
2019-04-01T02:57:05.845Z,54.53
2019-04-01T02:59:37.610Z,48.47
2019-04-01T03:02:13.119Z,50.77
2019-04-01T03:04:45.437Z,45.03
2019-04-01T03:07:22.121Z,44.80
2019-04-01T03:09:56.130Z,49.80
2019-04-01T03:12:29.795Z,43.27
2019-04-01T03:15:04.773Z,51.50
2019-04-01T03:17:38.548Z,45.90
2019-04-01T03:20:14.314Z,46.97
2019-04-01T03:22:51.115Z,54.05
2019-04-01T03:25:23.980Z,46.67
2019-04-01T03:27:57.669Z,46.03
2019-04-01T03:30:31.304Z,48.63
2019-04-01T03:33:02.818Z,50.60
2019-04-01T03:35:40.936Z,44.27
2019-04-01T03:38:14.272Z,53.37
2019-04-01T03:40:46.988Z,44.50
2019-04-01T03:43:20.119Z,49.08
2019-04-01T03:46:01.686Z,45.98
2019-04-01T03:48:34.939Z,44.42
2019-04-01T03:51:08.246Z,49.70
2019-04-01T03:53:41.165Z,43.45
2019-04-01T03:56:13.038Z,44.50
2019-04-01T03:58:48.600Z,49.60
2019-04-01T04:01:22.117Z,48.20
2019-04-01T04:03:55.215Z,43.70
2019-04-01T04:06:28.034Z,47.67
2019-04-01T04:09:02.139Z,46.53
2019-04-01T04:11:35.771Z,41.70
2019-04-01T04:14:07.339Z,43.50
2019-04-01T04:16:40.977Z,44.23
2019-04-01T04:19:17.417Z,41.13
2019-04-01T04:21:48.947Z,39.83
2019-04-01T04:24:22.736Z,42.20
2019-04-01T04:26:57.440Z,40.70
2019-04-01T04:29:29.163Z,38.35
2019-04-01T04:32:02.325Z,36.40
2019-04-01T04:34:37.240Z,42.53
2019-04-01T04:37:11.207Z,40.30
2019-04-01T04:39:43.859Z,41.20
2019-04-01T04:42:19.772Z,40.63
2019-04-01T04:44:52.259Z,42.67
2019-04-01T04:47:27.172Z,36.13
2019-04-01T04:50:01.350Z,39.00
2019-04-01T04:52:34.240Z,32.93
2019-04-01T04:55:07.291Z,35.73
2019-04-01T04:57:43.100Z,35.90
2019-04-01T05:00:16.920Z,31.50
2019-04-01T05:02:49.307Z,34.63
2019-04-01T05:05:22.447Z,28.40
2019-04-01T05:07:57.257Z,29.83
2019-04-01T05:10:33.391Z,37.43
2019-04-01T05:13:07.982Z,34.00
2019-04-01T05:15:41.788Z,33.50
2019-04-01T05:18:15.971Z,37.67
2019-04-01T05:20:50.707Z,35.70
2019-04-01T05:23:25.686Z,37.00
2019-04-01T05:26:01.986Z,37.07
2019-04-01T05:28:35.310Z,30.70
2019-04-01T05:31:09.455Z,40.20
2019-04-01T05:33:55.209Z,31.40
2019-04-01T05:36:20.520Z,33.13
2019-04-01T05:38:54.555Z,31.60
2019-04-01T05:41:28.965Z,37.47
2019-04-01T05:44:02.384Z,40.07
2019-04-01T05:46:34.308Z,37.77
2019-04-01T05:49:09.388Z,34.23
2019-04-01T05:51:48.779Z,44.03
2019-04-01T05:54:20.420Z,35.87
2019-04-01T05:56:52.397Z,33.47
2019-04-01T05:59:28.952Z,26.97
2019-04-01T06:02:00.367Z,29.93
2019-04-01T06:04:31.974Z,37.03
2019-04-01T06:07:04.483Z,35.30
2019-04-01T06:09:37.797Z,34.35
2019-04-01T06:12:12.068Z,29.83
2019-04-01T06:14:48.074Z,31.40
2019-04-01T06:17:21.791Z,32.10
2019-04-01T06:19:54.547Z,27.40
2019-04-01T06:22:28.578Z,24.20
2019-04-01T06:25:01.879Z,36.83
2019-04-01T06:27:37.393Z,23.77
2019-04-01T06:30:10.813Z,21.37
2019-04-01T06:32:43.695Z,26.47
2019-04-01T06:35:17.714Z,21.27
2019-04-01T06:37:49.771Z,21.03
2019-04-01T06:40:22.164Z,20.70
2019-04-01T06:42:55.581Z,42.97
2019-04-01T06:45:28.168Z,30.30
2019-04-01T06:48:01.672Z,21.47
2019-04-01T06:50:36.354Z,21.47
2019-04-01T06:53:07.837Z,24.63
2019-04-01T06:55:41.857Z,22.30
2019-04-01T06:58:14.297Z,35.83
2019-04-01T07:00:47.143Z,27.20
2019-04-01T07:03:20.855Z,21.13
2019-04-01T07:05:53.130Z,21.30
2019-04-01T07:08:25.747Z,22.60
2019-04-01T07:10:59.642Z,20.93
2019-04-01T07:13:31.745Z,25.10
2019-04-01T07:16:16.211Z,19.13
2019-04-01T07:18:50.019Z,26.03
2019-04-01T07:21:23.326Z,22.97
2019-04-01T07:23:57.625Z,23.57
2019-04-01T07:26:32.328Z,31.30
2019-04-01T07:29:05.930Z,23.87
2019-04-01T07:31:39.446Z,31.33
2019-04-01T07:34:18.101Z,28.00
2019-04-01T07:36:56.566Z,22.03
2019-04-01T07:39:31.359Z,29.18
2019-04-01T07:42:03.360Z,25.43
2019-04-01T07:44:45.185Z,22.30
2019-04-01T07:47:23.035Z,27.77
2019-04-01T07:49:57.791Z,27.47
2019-04-01T07:52:32.242Z,21.57
2019-04-01T07:55:05.420Z,27.10
2019-04-01T07:57:42.221Z,32.63
2019-04-01T08:00:18.894Z,20.33
2019-04-01T08:02:55.676Z,35.37
2019-04-01T08:05:29.593Z,34.03
2019-04-01T08:08:03.584Z,30.93
2019-04-01T08:10:36.197Z,25.93
2019-04-01T08:13:09.808Z,33.37
2019-04-01T08:15:45.493Z,30.57
2019-04-01T08:18:17.916Z,28.20
2019-04-01T08:20:53.666Z,26.17
2019-04-01T08:23:28.624Z,28.75
2019-04-01T08:26:02.548Z,29.20
2019-04-01T08:28:35.143Z,26.47
2019-04-01T08:31:08.082Z,32.43
2019-04-01T08:33:42.035Z,24.77
2019-04-01T08:36:16.048Z,25.13
2019-04-01T08:38:50.257Z,30.20
2019-04-01T08:41:24.746Z,26.40
2019-04-01T08:43:56.356Z,29.50
2019-04-01T08:46:27.758Z,26.27
2019-04-01T08:48:59.808Z,32.30
2019-04-01T08:51:31.585Z,30.83
2019-04-01T08:54:04.140Z,30.83
2019-04-01T08:56:38.065Z,31.47
2019-04-01T08:59:09.154Z,38.80
2019-04-01T09:01:41.321Z,24.90
2019-04-01T09:04:14.415Z,28.13
2019-04-01T09:06:48.103Z,26.77
2019-04-01T09:09:20.206Z,26.80
2019-04-01T09:11:54.817Z,21.93
2019-04-01T09:14:32.470Z,25.13
2019-04-01T09:17:04.591Z,30.33
2019-04-01T09:19:40.303Z,32.00
2019-04-01T09:22:15.964Z,33.27
2019-04-01T09:24:49.595Z,27.90
2019-04-01T09:27:23.338Z,27.90
2019-04-01T09:29:56.365Z,30.43
2019-04-01T09:32:28.377Z,29.43
2019-04-01T09:35:01.451Z,28.03
2019-04-01T09:37:34.524Z,29.85
2019-04-01T09:40:07.323Z,28.33
2019-04-01T09:42:42.515Z,26.33
2019-04-01T09:45:14.603Z,30.67
2019-04-01T09:47:47.326Z,27.70
2019-04-01T09:50:21.396Z,28.20
2019-04-01T09:52:55.375Z,27.40
2019-04-01T09:55:28.508Z,32.75
2019-04-01T09:58:02.592Z,35.43
2019-04-01T10:00:36.145Z,32.73
2019-04-01T10:03:08.569Z,32.97
2019-04-01T10:05:40.543Z,25.70
2019-04-01T10:08:13.618Z,32.93
2019-04-01T10:10:48.391Z,33.93
2019-04-01T10:13:22.434Z,26.93
2019-04-01T10:15:55.125Z,23.23
2019-04-01T10:18:28.571Z,33.03
2019-04-01T10:21:05.666Z,29.83
2019-04-01T10:23:41.687Z,32.93
2019-04-01T10:26:13.867Z,34.20
2019-04-01T10:28:49.345Z,35.43
2019-04-01T10:31:21.514Z,25.37
2019-04-01T10:33:53.716Z,29.60
2019-04-01T10:36:28.439Z,34.30
2019-04-01T10:39:01.874Z,28.57
2019-04-01T10:41:36.992Z,27.50
2019-04-01T10:44:10.523Z,28.07
2019-04-01T10:46:43.861Z,30.23
2019-04-01T10:49:16.904Z,24.17
2019-04-01T10:51:49.867Z,25.63
2019-04-01T10:54:25.686Z,29.70
2019-04-01T10:56:59.079Z,27.43
2019-04-01T10:59:31.509Z,28.50
2019-04-01T11:02:03.853Z,27.40
2019-04-01T11:04:37.453Z,32.10
2019-04-01T11:07:10.955Z,28.30
2019-04-01T11:09:44.974Z,26.43
2019-04-01T11:12:17.626Z,27.27
2019-04-01T11:14:49.895Z,26.87
2019-04-01T11:17:25.047Z,27.05
2019-04-01T11:19:58.958Z,30.20
2019-04-01T11:22:31.952Z,28.13
2019-04-01T11:25:05.527Z,37.90
2019-04-01T11:27:38.244Z,23.20
2019-04-01T11:30:13.698Z,33.83
2019-04-01T11:32:44.839Z,28.50
2019-04-01T11:35:17.336Z,28.10
2019-04-01T11:37:52.182Z,24.50
2019-04-01T11:40:27.121Z,26.90
2019-04-01T11:43:05.087Z,23.80
2019-04-01T11:45:43.081Z,28.85
2019-04-01T11:48:19.036Z,27.53
2019-04-01T11:50:53.846Z,29.60
2019-04-01T11:53:26.981Z,31.13
2019-04-01T11:56:02.253Z,24.50
2019-04-01T11:58:35.038Z,27.17
2019-04-01T12:01:08.010Z,25.70
2019-04-01T12:03:42.779Z,45.83
2019-04-01T12:06:18.975Z,23.60
2019-04-01T12:08:52.931Z,29.80
2019-04-01T12:11:26.231Z,22.70
2019-04-01T12:14:05.112Z,35.27
2019-04-01T12:16:38.204Z,27.00
2019-04-01T12:19:11.223Z,23.33
2019-04-01T12:21:46.714Z,24.90
2019-04-01T12:24:21.696Z,28.13
2019-04-01T12:26:54.903Z,23.73
2019-04-01T12:29:29.140Z,24.23
2019-04-01T12:32:02.313Z,24.75
2019-04-01T12:34:35.491Z,24.73
2019-04-01T12:37:10.883Z,21.47
2019-04-01T12:39:48.628Z,26.93
2019-04-01T12:42:21.456Z,42.90
2019-04-01T12:44:54.167Z,21.97
2019-04-01T12:47:28.321Z,22.73
2019-04-01T12:50:06.768Z,24.43
2019-04-01T12:52:38.842Z,31.17
2019-04-01T12:55:14.379Z,24.77
2019-04-01T12:57:50.743Z,27.77
2019-04-01T13:00:24.070Z,21.07
2019-04-01T13:02:58.454Z,29.60
2019-04-01T13:05:31.997Z,23.07
2019-04-01T13:08:14.532Z,20.60
2019-04-01T13:10:48.680Z,29.73
2019-04-01T13:13:24.175Z,28.37
2019-04-01T13:15:56.304Z,27.93
2019-04-01T13:18:29.660Z,22.60
2019-04-01T13:21:07.029Z,26.30
2019-04-01T13:23:50.108Z,30.47
2019-04-01T13:26:21.566Z,23.93
2019-04-01T13:28:54.947Z,22.10
2019-04-01T13:31:33.304Z,19.75
2019-04-01T13:34:05.471Z,20.97
2019-04-01T13:36:38.906Z,24.03
2019-04-01T13:39:19.706Z,29.80
2019-04-01T13:42:00.139Z,21.97
2019-04-01T13:44:37.183Z,32.77
2019-04-01T13:47:09.060Z,29.63
2019-04-01T13:49:42.481Z,24.90
2019-04-01T13:52:21.971Z,23.27
2019-04-01T13:55:12.215Z,21.95
2019-04-01T13:58:01.763Z,31.73
2019-04-01T14:00:37.700Z,27.70
2019-04-01T14:03:13.399Z,20.43
2019-04-01T14:05:51.361Z,26.30
2019-04-01T14:08:31.131Z,29.60
2019-04-01T14:11:25.328Z,22.98
2019-04-01T14:14:07.925Z,25.90
2019-04-01T14:16:44.182Z,15.53
2019-04-01T14:19:22.511Z,21.90
2019-04-01T14:21:59.816Z,26.43
2019-04-01T14:24:34.355Z,20.17
2019-04-01T14:27:10.140Z,21.77
2019-04-01T14:29:48.465Z,23.10
2019-04-01T14:32:23.696Z,18.97
2019-04-01T14:34:58.331Z,17.17
2019-04-01T14:37:34.521Z,14.75
2019-04-01T14:40:18.283Z,21.37
2019-04-01T14:42:51.925Z,15.03
2019-04-01T14:45:27.714Z,19.05
2019-04-01T14:48:08.873Z,25.40
2019-04-01T14:50:44.723Z,20.00
2019-04-01T14:53:30.111Z,16.12
2019-04-01T14:56:02.686Z,22.90
2019-04-01T14:58:38.195Z,16.57
2019-04-01T15:01:18.154Z,22.53
2019-04-01T15:03:54.228Z,19.17
2019-04-01T15:06:28.943Z,23.57
2019-04-01T15:09:02.872Z,17.70
2019-04-01T15:11:58.384Z,21.60
2019-04-01T15:14:33.253Z,15.57
2019-04-01T15:17:09.337Z,20.00
2019-04-01T15:19:43.501Z,16.33
2019-04-01T15:22:27.924Z,21.47
2019-04-01T15:25:03.799Z,25.20
2019-04-01T15:27:42.447Z,15.43
2019-04-01T15:30:16.621Z,20.00
2019-04-01T15:32:54.911Z,22.60
2019-04-01T15:35:26.385Z,21.07
2019-04-01T15:38:02.875Z,22.93
2019-04-01T15:40:35.788Z,18.03
2019-04-01T15:43:13.179Z,15.18
2019-04-01T15:46:03.902Z,22.30
2019-04-01T15:48:38.783Z,15.13
2019-04-01T15:51:18.662Z,17.73
2019-04-01T15:53:52.559Z,17.40
2019-04-01T15:56:26.573Z,16.67
2019-04-01T15:59:08.097Z,17.48
2019-04-01T16:01:50.484Z,25.30
2019-04-01T16:04:37.138Z,18.53
2019-04-01T16:07:22.449Z,17.17
2019-04-01T16:09:59.226Z,22.13
2019-04-01T16:12:35.230Z,11.80
2019-04-01T16:15:26.027Z,14.00
2019-04-01T16:18:12.117Z,13.90
2019-04-01T16:20:52.637Z,17.67
2019-04-01T16:23:37.803Z,30.37
2019-04-01T16:26:15.793Z,17.23
2019-04-01T16:28:58.253Z,11.87
2019-04-01T16:31:34.131Z,12.67
2019-04-01T16:34:08.570Z,30.63
2019-04-01T16:36:47.236Z,17.37
2019-04-01T16:39:45.666Z,19.93
2019-04-01T16:42:21.216Z,17.73
2019-04-01T16:45:05.356Z,14.03
2019-04-01T16:48:09.444Z,15.40
2019-04-01T16:50:44.410Z,15.20
2019-04-01T16:53:31.498Z,17.87
2019-04-01T16:56:07.170Z,10.70
2019-04-01T16:58:47.882Z,15.17
2019-04-01T17:01:25.228Z,19.37
2019-04-01T17:04:37.638Z,16.47
2019-04-01T17:07:13.864Z,16.90
2019-04-01T17:09:59.854Z,9.78
2019-04-01T17:13:04.664Z,26.40
2019-04-01T17:15:44.538Z,10.80
2019-04-01T17:18:20.668Z,17.80
2019-04-01T17:21:02.531Z,20.37
2019-04-01T17:23:41.913Z,14.57
2019-04-01T17:26:45.107Z,14.97
2019-04-01T17:29:53.475Z,24.65
2019-04-01T17:32:29.248Z,20.97
2019-04-01T17:35:02.142Z,22.17
2019-04-01T17:37:49.218Z,24.03
2019-04-01T17:40:33.207Z,16.57
2019-04-01T17:43:24.628Z,25.67
2019-04-01T17:46:06.864Z,24.93
2019-04-01T17:48:42.968Z,14.83
2019-04-01T17:51:17.263Z,19.50
2019-04-01T17:54:00.881Z,14.87
2019-04-01T17:56:35.519Z,11.60
2019-04-01T18:00:04.562Z,24.70
2019-04-01T18:02:47.425Z,21.67
2019-04-01T18:05:25.552Z,16.50
2019-04-01T18:08:09.031Z,17.00
2019-04-01T18:10:53.618Z,17.93
2019-04-01T18:13:33.678Z,23.80
2019-04-01T18:16:07.381Z,14.90
2019-04-01T18:18:47.335Z,17.60
2019-04-01T18:21:32.779Z,21.23
2019-04-01T18:24:17.000Z,16.67
2019-04-01T18:27:23.486Z,18.13
2019-04-01T18:30:14.244Z,14.67
2019-04-01T18:33:25.524Z,17.87
2019-04-01T18:36:52.086Z,20.63
2019-04-01T18:40:01.403Z,17.17
2019-04-01T18:43:00.017Z,21.00
2019-04-01T18:46:24.843Z,19.00
2019-04-01T18:49:57.363Z,22.13
2019-04-01T18:53:11.559Z,32.73
2019-04-01T18:56:39.671Z,21.37
2019-04-01T19:03:11.982Z,15.90
2019-04-01T19:06:36.085Z,12.03
2019-04-01T19:09:32.495Z,18.73
2019-04-01T19:12:31.841Z,23.60
2019-04-01T19:15:27.717Z,14.38
2019-04-01T19:22:59.454Z,11.70
2019-04-01T19:25:52.882Z,15.03
2019-04-01T19:28:48.297Z,10.43
2019-04-01T19:31:58.284Z,10.20
2019-04-01T19:35:15.833Z,23.70
2019-04-01T19:38:51.768Z,17.23
2019-04-01T19:41:37.727Z,11.43
2019-04-01T19:44:38.558Z,12.20
2019-04-01T19:47:45.024Z,18.73
2019-04-01T19:50:54.250Z,15.40
2019-04-01T19:53:58.087Z,12.60
2019-04-01T19:57:01.056Z,19.97
2019-04-01T20:00:43.952Z,9.37
2019-04-01T20:03:34.392Z,15.63
2019-04-01T20:06:59.980Z,8.73
2019-04-01T20:10:18.440Z,14.87
2019-04-01T20:12:50.914Z,17.70
2019-04-01T20:15:48.618Z,13.27
2019-04-01T20:18:55.736Z,8.23
2019-04-01T20:21:51.058Z,10.75
2019-04-01T20:25:00.724Z,13.80
2019-04-01T20:27:55.885Z,17.67
2019-04-01T20:31:02.171Z,16.93
2019-04-01T20:33:41.918Z,14.30
2019-04-01T20:36:32.503Z,9.17
2019-04-01T20:39:29.749Z,10.30
2019-04-01T20:42:24.905Z,10.33
2019-04-01T20:45:13.510Z,6.53
2019-04-01T20:47:58.320Z,13.70
2019-04-01T20:50:51.555Z,9.00
2019-04-01T20:53:39.371Z,15.07
2019-04-01T20:56:14.174Z,10.27
2019-04-01T20:58:56.962Z,13.30
2019-04-01T21:01:39.643Z,10.10
2019-04-01T21:04:49.906Z,8.70
2019-04-01T21:08:02.824Z,8.77
2019-04-01T21:10:28.639Z,8.70
2019-04-01T21:13:10.410Z,9.85
2019-04-01T21:15:47.122Z,8.75
2019-04-01T21:18:22.771Z,8.50
2019-04-01T21:21:03.199Z,9.20
2019-04-01T21:23:41.337Z,19.00
2019-04-01T21:26:21.005Z,5.50
2019-04-01T21:29:01.219Z,10.23
2019-04-01T21:31:40.324Z,6.53
2019-04-01T21:34:18.008Z,7.17
2019-04-01T21:37:06.277Z,11.30
2019-04-01T21:39:54.341Z,10.70
2019-04-01T21:43:08.186Z,19.00
2019-04-01T21:45:58.325Z,9.17
2019-04-01T21:48:42.658Z,9.83
2019-04-01T21:51:28.557Z,10.93
2019-04-01T21:54:10.694Z,14.20
2019-04-01T21:56:56.951Z,6.22
2019-04-01T21:59:44.157Z,16.93
2019-04-01T22:02:36.383Z,22.77
2019-04-01T22:05:22.098Z,21.87
2019-04-01T22:08:07.188Z,8.73
2019-04-01T22:11:16.646Z,17.93
2019-04-01T22:14:07.786Z,19.23
2019-04-01T22:16:48.805Z,14.50
2019-04-01T22:19:54.116Z,12.73
2019-04-01T22:23:07.932Z,9.07
2019-04-01T22:26:02.201Z,10.70
2019-04-01T22:28:38.167Z,12.57
2019-04-01T22:31:27.635Z,9.70
2019-04-01T22:34:08.268Z,9.23
2019-04-01T22:36:52.247Z,8.10
2019-04-01T22:39:57.397Z,9.00
2019-04-01T22:42:37.019Z,8.70
2019-04-01T22:45:23.249Z,16.13
2019-04-01T22:48:14.674Z,10.70
2019-04-01T22:50:58.398Z,11.37
2019-04-01T22:53:40.313Z,8.17
2019-04-01T22:56:21.987Z,9.27
2019-04-01T22:58:59.094Z,8.93
2019-04-01T23:01:45.036Z,14.70
2019-04-01T23:04:21.085Z,12.90
2019-04-01T23:06:56.100Z,12.97
2019-04-01T23:09:37.212Z,9.03
2019-04-01T23:12:10.306Z,8.63
2019-04-01T23:14:48.255Z,11.13
2019-04-01T23:17:28.693Z,11.85
2019-04-01T23:20:00.916Z,10.43
2019-04-01T23:22:52.792Z,23.63
2019-04-01T23:25:35.044Z,8.77
2019-04-01T23:28:34.738Z,10.35
2019-04-01T23:31:28.860Z,5.15
2019-04-01T23:34:19.124Z,14.93
2019-04-01T23:37:00.523Z,17.83
2019-04-01T23:40:06.669Z,8.87
2019-04-01T23:42:56.446Z,7.30
2019-04-01T23:45:54.945Z,11.73
2019-04-01T23:59:37.154Z,8.83
